Time;durP1;ratioP1;P1;durP2;ratioP2;P2;SDS_P1;SDS_P2;PMS_P1;PMS_P2;Temp;Humidity;BMP_temperature;BMP_pressure;BME280_temperature;BME280_humidity;BME280_pressure;Samples;Min_cycle;Max_cycle;Signal;HPM_P1;HPM_P2
2023/01/30 00:00:30;;;;;;;;;;;9.40;61.00;;;;;;4957072;28;19929;-91
2023/01/30 00:02:55;;;;;;;;;;;9.40;61.20;;;;;;4974286;28;19942;-92
2023/01/30 00:05:21;;;;;;;;;;;9.50;61.10;;;;;;4956205;28;19918;-92
2023/01/30 00:07:46;;;;;;;;;;;9.50;61.10;;;;;;4973768;28;19937;-95
2023/01/30 00:10:12;;;;;;;;;;;9.50;61.20;;;;;;4955197;28;19918;-91
2023/01/30 00:12:38;;;;;;;;;;;9.50;61.10;;;;;;4955736;28;20399;-91
2023/01/30 00:15:04;;;;;;;;;;;9.50;61.20;;;;;;4973306;28;20045;-92
2023/01/30 00:17:30;;;;;;;;;;;9.50;61.20;;;;;;4972992;28;20013;-94
2023/01/30 00:19:56;;;;;;;;;;;9.60;61.20;;;;;;4955971;28;20004;-91
2023/01/30 00:22:24;;;;;;;;;;;9.60;61.20;;;;;;4972956;28;20012;-90
2023/01/30 00:24:51;;;;;;;;;;;9.70;61.10;;;;;;4955426;28;19918;-90
2023/01/30 00:27:17;;;;;;;;;;;9.70;61.10;;;;;;4955485;28;19937;-95
2023/01/30 00:29:43;;;;;;;;;;;9.70;61.10;;;;;;4972120;28;19922;-91
2023/01/30 00:32:08;;;;;;;;;;;9.70;61.10;;;;;;4955710;28;19930;-90
2023/01/30 00:34:38;;;;;;;;;;;9.80;61.10;;;;;;4972517;28;19928;-91
2023/01/30 00:37:04;;;;;;;;;;;9.80;61.10;;;;;;4972649;28;19910;-95
2023/01/30 00:39:30;;;;;;;;;;;9.80;61.10;;;;;;4955812;28;19930;-90
2023/01/30 00:47:28;;;;;;;;;;;9.80;61.10;;;;;;4953557;28;20070;-94
2023/01/30 00:49:55;;;;;;;;;;;9.80;61.10;;;;;;4955102;28;20012;-91
2023/01/30 00:52:21;;;;;;;;;;;9.90;61.10;;;;;;4972253;28;19910;-91
2023/01/30 00:54:46;;;;;;;;;;;9.90;61.20;;;;;;4971104;28;19926;-90
2023/01/30 00:57:12;;;;;;;;;;;10.00;61.20;;;;;;4954462;28;19918;-90
2023/01/30 00:59:37;;;;;;;;;;;10.00;61.10;;;;;;4971983;28;20348;-95
2023/01/30 01:02:04;;;;;;;;;;;10.00;61.00;;;;;;4954764;28;20365;-91
2023/01/30 01:04:29;;;;;;;;;;;10.10;61.00;;;;;;4972398;28;19925;-90
2023/01/30 01:06:57;;;;;;;;;;;10.10;60.90;;;;;;4955585;28;19910;-95
2023/01/30 01:09:22;;;;;;;;;;;10.00;61.00;;;;;;4954900;28;19922;-91
2023/01/30 01:11:50;;;;;;;;;;;10.00;61.00;;;;;;4972747;28;19921;-91
2023/01/30 01:14:17;;;;;;;;;;;10.10;60.90;;;;;;4971627;28;20409;-89
2023/01/30 01:16:42;;;;;;;;;;;10.10;60.90;;;;;;4971450;28;19968;-88
2023/01/30 01:19:08;;;;;;;;;;;10.00;60.90;;;;;;4971584;28;19958;-90
2023/01/30 01:21:33;;;;;;;;;;;10.00;60.90;;;;;;4971125;28;19918;-91
2023/01/30 01:23:59;;;;;;;;;;;9.90;60.90;;;;;;4953268;28;20022;-95
2023/01/30 01:26:27;;;;;;;;;;;9.90;61.10;;;;;;4971256;28;19922;-90
2023/01/30 01:28:53;;;;;;;;;;;9.80;61.20;;;;;;4953788;28;19989;-90
2023/01/30 01:31:19;;;;;;;;;;;9.80;61.40;;;;;;4971327;28;19933;-90
2023/01/30 01:33:45;;;;;;;;;;;9.80;61.50;;;;;;4954088;28;19917;-94
2023/01/30 01:36:10;;;;;;;;;;;9.80;61.50;;;;;;4971709;28;19962;-91
2023/01/30 01:38:37;;;;;;;;;;;9.80;61.60;;;;;;4953464;28;19922;-91
2023/01/30 01:41:06;;;;;;;;;;;9.70;61.60;;;;;;4954161;28;19969;-96
2023/01/30 01:43:33;;;;;;;;;;;9.70;61.70;;;;;;4971291;28;19914;-91
2023/01/30 01:46:10;;;;;;;;;;;9.70;61.90;;;;;;4971593;28;19929;-89
2023/01/30 01:48:41;;;;;;;;;;;9.70;62.00;;;;;;4947280;28;19914;-90
2023/01/30 01:51:16;;;;;;;;;;;9.70;62.10;;;;;;4970545;28;19918;-91
2023/01/30 01:53:48;;;;;;;;;;;9.70;62.20;;;;;;4966034;28;19914;-90
2023/01/30 01:56:15;;;;;;;;;;;9.70;62.30;;;;;;4952919;28;19969;-94
2023/01/30 01:58:51;;;;;;;;;;;9.70;62.40;;;;;;4970849;28;20466;-93
2023/01/30 02:01:18;;;;;;;;;;;9.70;62.50;;;;;;4953388;28;19918;-90
2023/01/30 02:03:46;;;;;;;;;;;9.60;62.60;;;;;;4970490;28;19918;-90
2023/01/30 02:06:12;;;;;;;;;;;9.70;62.70;;;;;;4970766;28;20010;-94
2023/01/30 02:08:40;;;;;;;;;;;9.70;62.70;;;;;;4953683;28;19918;-90
2023/01/30 02:11:10;;;;;;;;;;;9.70;62.80;;;;;;4953520;28;19919;-89
2023/01/30 02:13:39;;;;;;;;;;;9.70;62.90;;;;;;4953228;28;19910;-90
2023/01/30 02:16:06;;;;;;;;;;;9.70;63.10;;;;;;4969472;28;19921;-91
2023/01/30 02:18:32;;;;;;;;;;;9.70;63.00;;;;;;4970535;28;19922;-94
2023/01/30 02:21:16;;;;;;;;;;;9.70;63.00;;;;;;4953444;28;19922;-91
2023/01/30 02:23:56;;;;;;;;;;;9.80;63.00;;;;;;4971391;28;20617;-90
2023/01/30 02:26:28;;;;;;;;;;;9.80;63.20;;;;;;4953119;28;19918;-91
2023/01/30 02:29:12;;;;;;;;;;;9.80;63.30;;;;;;4954984;28;19911;-90
2023/01/30 02:31:49;;;;;;;;;;;9.80;63.30;;;;;;4972023;28;19928;-91
2023/01/30 02:34:23;;;;;;;;;;;9.90;63.20;;;;;;4953967;28;20362;-91
2023/01/30 02:36:49;;;;;;;;;;;9.90;63.30;;;;;;4971207;28;19945;-90
2023/01/30 02:39:14;;;;;;;;;;;9.90;63.50;;;;;;4971189;28;19926;-95
2023/01/30 02:41:49;;;;;;;;;;;10.00;63.30;;;;;;4971286;28;19922;-91
2023/01/30 02:44:26;;;;;;;;;;;10.00;63.30;;;;;;4971382;28;19918;-93
2023/01/30 02:47:05;;;;;;;;;;;10.00;63.30;;;;;;4953951;28;19914;-95
2023/01/30 02:49:55;;;;;;;;;;;10.00;63.40;;;;;;4971483;28;20348;-90
2023/01/30 02:52:24;;;;;;;;;;;10.10;63.40;;;;;;4953266;28;20512;-94
2023/01/30 02:54:52;;;;;;;;;;;10.20;63.30;;;;;;4954196;28;19924;-90
2023/01/30 02:57:21;;;;;;;;;;;10.20;63.30;;;;;;4970732;28;19924;-91
2023/01/30 02:59:51;;;;;;;;;;;10.20;63.30;;;;;;4953731;28;19910;-91
2023/01/30 03:02:35;;;;;;;;;;;10.30;63.40;;;;;;4970930;28;19950;-95
2023/01/30 03:05:13;;;;;;;;;;;10.30;63.30;;;;;;4970716;28;19914;-91
2023/01/30 03:07:41;;;;;;;;;;;10.30;63.30;;;;;;4970087;28;20357;-93
2023/01/30 03:10:22;;;;;;;;;;;10.30;63.40;;;;;;4956015;28;19914;-91
2023/01/30 03:13:06;;;;;;;;;;;10.40;63.30;;;;;;4974250;28;19918;-90
2023/01/30 03:15:45;;;;;;;;;;;10.40;63.40;;;;;;4974331;28;19919;-93
2023/01/30 03:18:11;;;;;;;;;;;10.40;63.50;;;;;;4973879;28;19984;-91
2023/01/30 03:20:40;;;;;;;;;;;10.50;63.40;;;;;;4973795;28;19914;-90
2023/01/30 03:23:06;;;;;;;;;;;10.50;63.50;;;;;;4955008;28;19917;-92
2023/01/30 03:25:32;;;;;;;;;;;10.50;63.50;;;;;;4973832;28;19917;-91
2023/01/30 03:28:02;;;;;;;;;;;10.60;63.50;;;;;;4973627;28;19914;-91
2023/01/30 03:30:30;;;;;;;;;;;10.60;63.60;;;;;;4956351;28;19922;-91
2023/01/30 03:32:55;;;;;;;;;;;10.60;63.40;;;;;;4975485;28;19910;-91
2023/01/30 03:35:21;;;;;;;;;;;10.60;63.40;;;;;;4958442;28;20296;-95
2023/01/30 03:37:53;;;;;;;;;;;10.60;63.50;;;;;;4959986;28;20021;-94
2023/01/30 03:40:20;;;;;;;;;;;10.70;63.50;;;;;;4954868;28;19918;-90
2023/01/30 03:42:45;;;;;;;;;;;10.70;63.50;;;;;;4982930;28;19914;-94
2023/01/30 03:45:13;;;;;;;;;;;10.70;63.50;;;;;;4960111;28;19970;-90
2023/01/30 03:47:41;;;;;;;;;;;10.70;63.60;;;;;;4979205;28;19977;-92
2023/01/30 03:50:08;;;;;;;;;;;10.70;63.50;;;;;;4978874;28;19914;-90
2023/01/30 03:52:34;;;;;;;;;;;10.70;63.60;;;;;;4984324;28;19910;-90
2023/01/30 03:55:01;;;;;;;;;;;10.70;63.50;;;;;;4985493;28;19910;-91
2023/01/30 03:57:31;;;;;;;;;;;10.70;63.50;;;;;;4978647;28;21369;-94
2023/01/30 03:59:57;;;;;;;;;;;10.70;63.60;;;;;;4960198;28;20293;-94
2023/01/30 04:02:24;;;;;;;;;;;10.70;63.70;;;;;;4976022;28;19914;-90
2023/01/30 04:04:50;;;;;;;;;;;10.70;63.50;;;;;;4973788;28;19972;-92
2023/01/30 04:07:16;;;;;;;;;;;10.70;63.60;;;;;;4959631;28;19914;-93
2023/01/30 04:09:42;;;;;;;;;;;10.80;63.50;;;;;;4960677;28;19910;-90
2023/01/30 04:12:08;;;;;;;;;;;10.80;63.50;;;;;;4984273;28;19932;-91
2023/01/30 04:14:34;;;;;;;;;;;10.80;63.60;;;;;;4977026;28;19915;-91
2023/01/30 04:16:59;;;;;;;;;;;10.80;63.60;;;;;;4982596;28;19914;-95
2023/01/30 04:19:27;;;;;;;;;;;10.80;63.60;;;;;;4957841;28;19981;-95
2023/01/30 04:21:53;;;;;;;;;;;10.80;63.60;;;;;;4964469;28;19914;-90
2023/01/30 04:24:19;;;;;;;;;;;10.80;63.70;;;;;;4980916;28;20381;-91
2023/01/30 04:26:44;;;;;;;;;;;10.80;63.60;;;;;;4964883;28;19921;-93
2023/01/30 04:29:10;;;;;;;;;;;10.80;63.70;;;;;;4956616;28;20087;-90
2023/01/30 04:31:35;;;;;;;;;;;10.80;63.60;;;;;;4977820;28;20346;-90
2023/01/30 04:34:01;;;;;;;;;;;10.90;63.60;;;;;;4976651;28;19922;-90
2023/01/30 04:36:30;;;;;;;;;;;10.90;63.80;;;;;;4976744;28;19914;-95
2023/01/30 04:38:58;;;;;;;;;;;10.90;63.80;;;;;;4958227;28;19965;-96
2023/01/30 04:41:24;;;;;;;;;;;10.90;63.80;;;;;;4959518;28;19945;-91
2023/01/30 04:43:50;;;;;;;;;;;11.00;63.90;;;;;;4960220;28;19959;-90
2023/01/30 04:46:17;;;;;;;;;;;11.00;64.00;;;;;;4960294;28;19914;-92
2023/01/30 04:48:43;;;;;;;;;;;11.00;63.90;;;;;;4956144;28;19922;-96
2023/01/30 04:51:09;;;;;;;;;;;11.00;63.90;;;;;;4955311;28;20016;-91
2023/01/30 04:53:35;;;;;;;;;;;11.00;63.90;;;;;;4973463;28;19966;-90
2023/01/30 04:56:00;;;;;;;;;;;11.10;64.00;;;;;;4977288;28;19921;-91
2023/01/30 04:58:29;;;;;;;;;;;11.20;64.00;;;;;;4973642;28;19934;-95
2023/01/30 05:01:10;;;;;;;;;;;11.10;63.90;;;;;;4956049;28;20362;-90
2023/01/30 05:03:36;;;;;;;;;;;11.10;63.90;;;;;;4962498;28;20361;-90
2023/01/30 05:06:02;;;;;;;;;;;11.20;64.00;;;;;;4976402;28;19914;-91
2023/01/30 05:08:27;;;;;;;;;;;11.20;64.00;;;;;;4978586;28;20352;-90
2023/01/30 05:10:53;;;;;;;;;;;11.20;64.20;;;;;;4961053;28;19949;-90
2023/01/30 05:13:19;;;;;;;;;;;11.30;64.10;;;;;;4956188;28;20004;-91
2023/01/30 05:15:44;;;;;;;;;;;11.30;64.20;;;;;;4954274;28;19914;-91
2023/01/30 05:18:10;;;;;;;;;;;11.30;64.20;;;;;;4985959;28;19941;-91
2023/01/30 05:20:36;;;;;;;;;;;11.40;64.20;;;;;;4974543;28;19914;-90
2023/01/30 05:23:02;;;;;;;;;;;11.40;64.20;;;;;;4980496;28;19918;-91
2023/01/30 05:25:29;;;;;;;;;;;11.50;64.20;;;;;;4967471;28;19994;-94
2023/01/30 05:27:59;;;;;;;;;;;11.40;64.30;;;;;;4962204;28;19914;-91
2023/01/30 05:30:37;;;;;;;;;;;11.50;64.30;;;;;;4980073;28;19925;-90
2023/01/30 05:33:02;;;;;;;;;;;11.50;64.30;;;;;;4970995;28;20401;-92
2023/01/30 05:35:28;;;;;;;;;;;11.50;64.30;;;;;;4964383;28;19957;-90
2023/01/30 05:37:54;;;;;;;;;;;11.60;64.30;;;;;;4977920;28;19933;-95
2023/01/30 05:40:20;;;;;;;;;;;11.60;64.20;;;;;;4958023;28;19990;-93
2023/01/30 05:42:47;;;;;;;;;;;11.60;64.20;;;;;;4954900;28;19961;-91
2023/01/30 05:45:12;;;;;;;;;;;11.70;64.30;;;;;;4954397;28;19952;-91
2023/01/30 05:47:38;;;;;;;;;;;11.70;64.30;;;;;;4972890;28;19922;-90
2023/01/30 05:50:04;;;;;;;;;;;11.70;64.30;;;;;;4971762;28;20254;-91
2023/01/30 05:52:30;;;;;;;;;;;11.70;64.20;;;;;;4954571;28;20186;-90
2023/01/30 05:54:57;;;;;;;;;;;11.70;64.20;;;;;;4953571;28;19910;-94
2023/01/30 05:57:23;;;;;;;;;;;11.70;64.10;;;;;;4954988;28;20354;-91
2023/01/30 05:59:49;;;;;;;;;;;11.70;64.10;;;;;;4973921;28;19965;-90
2023/01/30 06:02:15;;;;;;;;;;;11.80;64.30;;;;;;4955190;28;19922;-95
2023/01/30 06:04:40;;;;;;;;;;;11.80;64.20;;;;;;4955786;28;19910;-93
2023/01/30 06:07:06;;;;;;;;;;;11.80;64.10;;;;;;4951999;28;19914;-93
2023/01/30 06:09:52;;;;;;;;;;;;;;;;;;;;;
2023/01/30 06:12:37;;;;;;;;;;;11.80;64.00;;;;;;4923201;28;19922;-93
2023/01/30 06:21:40;;;;;;;;;;;;;;;;;;;;;
2023/01/30 06:55:12;;;;;;;;;;;11.80;63.90;;;;;;5021158;23;19934;-90
2023/01/30 07:01:36;;;;;;;;;;;;;;;;;;;;;
2023/01/30 07:33:29;;;;;;;;;;;;;;;;;;;;;
2023/01/30 07:36:41;;;;;;;;;;;11.90;63.90;;;;;;4945142;29;20554;-92
2023/01/30 07:49:31;;;;;;;;;;;11.70;63.50;;;;;;4930199;29;20294;-92
2023/01/30 08:01:37;;;;;;;;;;;11.40;64.30;;;;;;4943578;28;19930;-91
2023/01/30 08:04:09;;;;;;;;;;;11.40;64.00;;;;;;4959486;28;19929;-92
2023/01/30 08:13:16;;;;;;;;;;;11.80;65.50;;;;;;4886850;29;19925;-91
2023/01/30 08:19:12;;;;;;;;;;;12.10;64.80;;;;;;4887647;29;20718;-92
2023/01/30 08:22:12;;;;;;;;;;;;;;;;;;;;;
2023/01/30 08:25:09;;;;;;;;;;;;;;;;;;;;;
2023/01/30 08:27:59;;;;;;;;;;;13.00;65.60;;;;;;4904281;29;19921;-92
2023/01/30 08:31:33;;;;;;;;;;;13.10;64.60;;;;;;4924396;29;19930;-89
2023/01/30 08:40:59;;;;;;;;;;;;;;;;;;;;;
2023/01/30 08:46:50;;;;;;;;;;;13.20;63.20;;;;;;4791414;29;19928;-91
2023/01/30 09:02:22;;;;;;;;;;;13.00;63.30;;;;;;4916980;23;19923;-90
2023/01/30 09:12:59;;;;;;;;;;;12.90;63.10;;;;;;1349943;23;20280;-89
2023/01/30 09:16:02;;;;;;;;;;;;;;;;;;;;;
2023/01/30 09:25:12;;;;;;;;;;;12.70;63.20;;;;;;4955040;28;19926;-93
2023/01/30 09:30:25;;;;;;;;;;;12.80;63.40;;;;;;4943088;28;20388;-93
2023/01/30 09:36:12;;;;;;;;;;;13.40;65.30;;;;;;5018609;23;19930;-93
2023/01/30 09:47:54;;;;;;;;;;;14.50;63.30;;;;;;1250156;23;20225;-94
2023/01/30 09:50:58;;;;;;;;;;;14.50;62.60;;;;;;4999851;23;19924;-92
2023/01/30 09:53:42;;;;;;;;;;;14.50;62.70;;;;;;4948124;28;19923;-92
2023/01/30 09:56:09;;;;;;;;;;;14.40;62.30;;;;;;4958757;28;19918;-92
2023/01/30 09:58:47;;;;;;;;;;;14.20;61.90;;;;;;4957825;28;19930;-95
2023/01/30 10:01:26;;;;;;;;;;;14.10;61.80;;;;;;4953849;28;19930;-92
2023/01/30 10:04:10;;;;;;;;;;;13.90;61.80;;;;;;4948140;28;20342;-92
2023/01/30 10:06:39;;;;;;;;;;;13.70;62.00;;;;;;4954462;28;19914;-95
2023/01/30 10:09:14;;;;;;;;;;;13.60;62.10;;;;;;4950468;28;19930;-95
2023/01/30 10:11:56;;;;;;;;;;;13.40;62.40;;;;;;4948410;29;20588;-92
2023/01/30 10:14:41;;;;;;;;;;;13.40;62.70;;;;;;4946402;28;19923;-92
2023/01/30 10:21:04;;;;;;;;;;;;;;;;;;;;;
2023/01/30 10:24:17;;;;;;;;;;;13.30;63.30;;;;;;4884991;29;19922;-93
2023/01/30 10:27:08;;;;;;;;;;;13.30;63.30;;;;;;4850646;29;19920;-90
2023/01/30 10:32:02;;;;;;;;;;;13.30;63.30;;;;;;4915271;29;19943;-91
2023/01/30 10:34:37;;;;;;;;;;;13.30;63.50;;;;;;4923574;29;19919;-91
2023/01/30 10:37:09;;;;;;;;;;;13.30;63.40;;;;;;4922629;29;19923;-94
2023/01/30 10:39:38;;;;;;;;;;;13.30;63.40;;;;;;4916282;29;19934;-95
2023/01/30 10:42:16;;;;;;;;;;;13.40;63.10;;;;;;4930497;29;19923;-91
2023/01/30 10:44:47;;;;;;;;;;;13.30;62.90;;;;;;4938194;29;19951;-91
2023/01/30 10:47:18;;;;;;;;;;;13.30;62.70;;;;;;4945715;28;19919;-94
2023/01/30 10:50:04;;;;;;;;;;;13.30;62.80;;;;;;4929650;29;19922;-93
2023/01/30 10:52:36;;;;;;;;;;;13.30;63.10;;;;;;4929076;29;20010;-90
2023/01/30 10:55:02;;;;;;;;;;;13.30;63.00;;;;;;4926355;29;19933;-92
2023/01/30 10:57:28;;;;;;;;;;;13.30;62.90;;;;;;4929061;29;20532;-92
2023/01/30 11:00:09;;;;;;;;;;;13.30;63.10;;;;;;4925044;29;19934;-90
2023/01/30 11:02:47;;;;;;;;;;;13.30;63.20;;;;;;4925336;29;19930;-94
2023/01/30 11:05:19;;;;;;;;;;;13.40;63.40;;;;;;4926958;29;19922;-92
2023/01/30 11:07:46;;;;;;;;;;;13.50;63.50;;;;;;4935287;29;20421;-92
2023/01/30 11:10:19;;;;;;;;;;;13.60;63.40;;;;;;4936553;29;19961;-92
2023/01/30 11:12:45;;;;;;;;;;;13.70;63.60;;;;;;4933184;29;19991;-92
2023/01/30 11:15:23;;;;;;;;;;;13.70;63.30;;;;;;4927119;29;19923;-92
2023/01/30 11:18:20;;;;;;;;;;;13.80;63.10;;;;;;4926779;29;19934;-93
2023/01/30 11:24:05;;;;;;;;;;;14.00;63.00;;;;;;4937585;28;19966;-93
2023/01/30 11:27:23;;;;;;;;;;;14.10;62.90;;;;;;4930608;29;19977;-94
2023/01/30 11:33:15;;;;;;;;;;;14.40;62.70;;;;;;4921277;29;19973;-92
2023/01/30 11:36:13;;;;;;;;;;;;;;;;;;;;;
2023/01/30 11:39:11;;;;;;;;;;;14.40;62.20;;;;;;4928970;29;19937;-92
2023/01/30 11:42:08;;;;;;;;;;;;;;;;;;;;;
2023/01/30 11:44:59;;;;;;;;;;;14.80;61.70;;;;;;4931528;29;19914;-93
2023/01/30 11:47:26;;;;;;;;;;;14.90;61.50;;;;;;4930579;29;19923;-92
2023/01/30 11:50:01;;;;;;;;;;;15.00;61.40;;;;;;4932463;29;19919;-92
2023/01/30 11:52:58;;;;;;;;;;;15.00;61.10;;;;;;4926183;29;19926;-91
2023/01/30 11:56:20;;;;;;;;;;;15.00;60.70;;;;;;4902294;29;19919;-93
2023/01/30 11:59:15;;;;;;;;;;;14.90;60.00;;;;;;4865865;29;19951;-90
2023/01/30 12:02:05;;;;;;;;;;;14.90;60.30;;;;;;4852732;29;19924;-93
2023/01/30 12:05:28;;;;;;;;;;;;;;;;;;;;;
2023/01/30 12:08:19;;;;;;;;;;;14.80;60.00;;;;;;4839256;29;19926;-91
2023/01/30 12:11:06;;;;;;;;;;;14.90;60.00;;;;;;4854493;29;20018;-91
2023/01/30 12:20:12;;;;;;;;;;;;;;;;;;;;;
2023/01/30 12:22:58;;;;;;;;;;;14.90;59.00;;;;;;4912017;29;19930;-92
2023/01/30 12:31:45;;;;;;;;;;;15.10;58.40;;;;;;4888758;29;19978;-90
2023/01/30 12:34:28;;;;;;;;;;;15.20;58.40;;;;;;4890653;29;20298;-91
2023/01/30 12:37:00;;;;;;;;;;;15.00;57.40;;;;;;4889478;29;19920;-92
2023/01/30 12:39:31;;;;;;;;;;;14.70;57.20;;;;;;4911013;29;20675;-93
2023/01/30 12:42:20;;;;;;;;;;;14.20;57.20;;;;;;4892925;29;19919;-92
2023/01/30 12:44:53;;;;;;;;;;;13.60;57.70;;;;;;4892772;29;19923;-90
2023/01/30 12:47:25;;;;;;;;;;;13.30;58.60;;;;;;4893386;29;19965;-90
2023/01/30 12:50:00;;;;;;;;;;;12.80;57.40;;;;;;4907818;29;20119;-90
2023/01/30 12:52:45;;;;;;;;;;;12.20;58.10;;;;;;4893156;29;20003;-93
2023/01/30 12:55:23;;;;;;;;;;;11.80;58.10;;;;;;4892048;29;19930;-91
2023/01/30 12:57:58;;;;;;;;;;;11.30;58.40;;;;;;4893324;29;19978;-92
2023/01/30 13:00:30;;;;;;;;;;;11.00;59.80;;;;;;4919611;29;20484;-93
2023/01/30 13:03:07;;;;;;;;;;;10.80;60.60;;;;;;4927504;29;20457;-90
2023/01/30 13:05:42;;;;;;;;;;;10.70;61.00;;;;;;4929296;29;19923;-91
2023/01/30 13:08:58;;;;;;;;;;;10.60;61.60;;;;;;4928553;29;20414;-91
2023/01/30 13:15:25;;;;;;;;;;;;;;;;;;;;;
2023/01/30 13:17:54;;;;;;;;;;;10.50;62.60;;;;;;4875835;29;19931;-91
2023/01/30 13:20:40;;;;;;;;;;;10.60;63.10;;;;;;4864971;29;19978;-91
2023/01/30 13:24:00;;;;;;;;;;;;;;;;;;;;;
2023/01/30 13:29:56;;;;;;;;;;;10.80;63.90;;;;;;4898482;29;19923;-93
2023/01/30 13:38:09;;;;;;;;;;;11.60;64.80;;;;;;4928270;29;19931;-93
2023/01/30 13:40:58;;;;;;;;;;;11.80;65.00;;;;;;4928915;29;20437;-90
2023/01/30 13:44:27;;;;;;;;;;;12.00;64.70;;;;;;4927073;29;19970;-91
2023/01/30 13:46:41;;;;;;;;;;;12.20;64.50;;;;;;4925154;28;19928;-91
2023/01/30 13:49:28;;;;;;;;;;;12.30;64.10;;;;;;4948478;28;19918;-91
2023/01/30 14:45:12;;;;;;;;;;;13.20;62.30;;;;;;4953172;28;20144;-90
2023/01/30 14:53:38;;;;;;;;;;;13.00;62.20;;;;;;4946427;28;20017;-96
2023/01/30 16:07:51;;;;;;;;;;;12.20;62.90;;;;;;5076254;23;20561;-93
2023/01/30 16:19:52;;;;;;;;;;;;;;;;;;;;;
2023/01/30 16:26:26;;;;;;;;;;;12.30;62.60;;;;;;4922618;29;19973;-93
2023/01/30 16:35:06;;;;;;;;;;;;;;;;;;;;;
2023/01/30 16:44:40;;;;;;;;;;;12.50;62.00;;;;;;4792096;29;20041;-93
2023/01/30 16:57:19;;;;;;;;;;;;;;;;;;;;;
2023/01/30 17:26:32;;;;;;;;;;;12.30;61.30;;;;;;4936163;23;19946;-93
2023/01/30 17:45:03;;;;;;;;;;;12.40;61.00;;;;;;4870134;29;19946;-91
2023/01/30 17:50:59;;;;;;;;;;;12.40;60.40;;;;;;4868213;29;20401;-90
2023/01/30 17:53:39;;;;;;;;;;;12.40;61.00;;;;;;4853783;29;19931;-93
2023/01/30 17:56:17;;;;;;;;;;;12.40;60.60;;;;;;4852584;29;19929;-92
2023/01/30 17:58:52;;;;;;;;;;;12.50;60.70;;;;;;4869818;29;19934;-92
2023/01/30 18:01:18;;;;;;;;;;;12.40;60.70;;;;;;4934376;29;19919;-93
2023/01/30 18:03:58;;;;;;;;;;;12.40;60.40;;;;;;4927061;29;19919;-92
2023/01/30 18:06:25;;;;;;;;;;;12.30;60.20;;;;;;4922294;29;20088;-92
2023/01/30 18:09:21;;;;;;;;;;;12.00;59.90;;;;;;4906886;29;20358;-91
2023/01/30 18:11:47;;;;;;;;;;;12.00;59.90;;;;;;4930649;28;19930;-91
2023/01/30 18:14:25;;;;;;;;;;;11.90;60.60;;;;;;4939884;29;20290;-92
2023/01/30 18:17:00;;;;;;;;;;;11.80;60.70;;;;;;4918594;29;20012;-93
2023/01/30 18:19:31;;;;;;;;;;;11.80;61.00;;;;;;4935443;28;20074;-91
2023/01/30 18:22:00;;;;;;;;;;;11.70;61.30;;;;;;4916813;29;20322;-93
2023/01/30 18:24:28;;;;;;;;;;;11.70;61.40;;;;;;4933574;29;19926;-91
2023/01/30 18:26:57;;;;;;;;;;;11.70;61.10;;;;;;4801369;28;5017491;-91
2023/01/30 18:29:25;;;;;;;;;;;11.60;60.90;;;;;;4942700;28;19914;-91
2023/01/30 18:32:04;;;;;;;;;;;11.50;60.70;;;;;;4929963;28;19919;-91
2023/01/30 18:34:34;;;;;;;;;;;11.40;60.30;;;;;;4929276;29;19953;-91
2023/01/30 18:37:02;;;;;;;;;;;11.30;60.10;;;;;;4930433;29;20386;-90
2023/01/30 18:39:28;;;;;;;;;;;11.20;60.00;;;;;;4929835;29;20535;-92
2023/01/30 18:41:54;;;;;;;;;;;11.00;59.90;;;;;;4932125;28;19915;-92
2023/01/30 18:44:20;;;;;;;;;;;10.90;60.30;;;;;;4948735;28;19929;-92
2023/01/30 18:46:55;;;;;;;;;;;10.90;60.80;;;;;;4951380;28;19962;-92
2023/01/30 18:49:26;;;;;;;;;;;10.90;61.30;;;;;;4932645;29;19934;-93
2023/01/30 18:51:54;;;;;;;;;;;11.00;61.50;;;;;;4932311;28;20313;-92
2023/01/30 18:54:23;;;;;;;;;;;11.00;61.70;;;;;;4950247;28;19957;-90
2023/01/30 18:57:26;;;;;;;;;;;11.00;61.90;;;;;;4937522;29;19919;-93
2023/01/30 19:00:13;;;;;;;;;;;11.10;62.10;;;;;;4934422;28;19926;-94
2023/01/30 19:02:42;;;;;;;;;;;11.20;62.20;;;;;;4917283;29;19966;-93
2023/01/30 19:08:13;;;;;;;;;;;11.30;62.00;;;;;;4930026;29;19923;-96
2023/01/30 19:16:16;;;;;;;;;;;;;;;;;;;;;
2023/01/30 19:25:40;;;;;;;;;;;;;;;;;;;;;
2023/01/30 19:28:45;;;;;;;;;;;;;;;;;;;;;
2023/01/30 19:34:44;;;;;;;;;;;11.50;61.90;;;;;;4968030;28;20004;-91
2023/01/30 19:40:33;;;;;;;;;;;11.70;61.80;;;;;;4993255;28;20381;-95
2023/01/30 19:43:00;;;;;;;;;;;11.70;61.90;;;;;;4992567;28;19918;-91
2023/01/30 19:46:45;;;;;;;;;;;11.80;61.60;;;;;;4996935;28;19952;-91
2023/01/30 19:51:43;;;;;;;;;;;11.80;61.50;;;;;;4933357;28;20378;-93
2023/01/30 19:54:10;;;;;;;;;;;11.80;61.50;;;;;;4925486;29;19923;-92
2023/01/30 19:56:59;;;;;;;;;;;;;;;;;;;;;
2023/01/30 19:59:50;;;;;;;;;;;;;;;;;;;;;
2023/01/30 20:04:57;;;;;;;;;;;11.80;61.20;;;;;;4977154;23;19937;-95
2023/01/30 20:07:33;;;;;;;;;;;11.80;60.90;;;;;;4966557;28;19922;-92
2023/01/30 20:10:01;;;;;;;;;;;11.70;60.60;;;;;;4964772;28;19918;-92
2023/01/30 20:12:30;;;;;;;;;;;11.60;60.50;;;;;;4967120;28;20017;-95
2023/01/30 20:15:03;;;;;;;;;;;11.50;60.60;;;;;;4978965;28;19914;-92
2023/01/30 20:17:44;;;;;;;;;;;;;;;;;;;;;
2023/01/30 20:20:35;;;;;;;;;;;11.50;61.10;;;;;;4971862;28;19922;-91
2023/01/30 20:23:44;;;;;;;;;;;11.50;61.20;;;;;;4967681;28;19914;-92
2023/01/30 20:26:14;;;;;;;;;;;11.50;61.30;;;;;;4985466;28;19929;-89
2023/01/30 20:28:52;;;;;;;;;;;11.50;61.20;;;;;;4966061;28;19929;-93
2023/01/30 20:31:21;;;;;;;;;;;11.50;61.10;;;;;;4969986;28;19918;-95
2023/01/30 20:33:56;;;;;;;;;;;11.50;61.10;;;;;;4966328;28;20033;-94
2023/01/30 20:36:31;;;;;;;;;;;11.60;61.20;;;;;;4972606;28;19996;-93
2023/01/30 20:39:23;;;;;;;;;;;11.60;61.00;;;;;;4990067;28;20058;-93
2023/01/30 20:42:07;;;;;;;;;;;11.50;60.80;;;;;;4969827;28;20373;-94
2023/01/30 20:44:52;;;;;;;;;;;11.60;60.70;;;;;;4989157;28;19926;-93
2023/01/30 20:47:23;;;;;;;;;;;11.50;60.50;;;;;;4994093;28;19926;-95
2023/01/30 20:49:59;;;;;;;;;;;11.40;59.90;;;;;;4972581;28;19918;-91
2023/01/30 20:52:45;;;;;;;;;;;11.30;59.70;;;;;;4976210;28;19978;-89
2023/01/30 20:55:15;;;;;;;;;;;11.20;59.80;;;;;;4966473;28;19921;-91
2023/01/30 20:57:42;;;;;;;;;;;11.20;59.90;;;;;;4975551;28;19918;-95
2023/01/30 21:00:37;;;;;;;;;;;11.20;60.00;;;;;;4970009;28;19985;-90
2023/01/30 21:03:15;;;;;;;;;;;11.20;60.10;;;;;;4970983;28;20013;-92
2023/01/30 21:05:44;;;;;;;;;;;11.20;60.30;;;;;;4975344;28;19914;-92
2023/01/30 21:08:25;;;;;;;;;;;11.10;60.20;;;;;;4972030;28;19926;-93
2023/01/30 21:11:04;;;;;;;;;;;11.10;60.20;;;;;;4972287;28;19917;-91
2023/01/30 21:13:40;;;;;;;;;;;11.00;59.80;;;;;;4970504;28;19922;-93
2023/01/30 21:16:09;;;;;;;;;;;11.00;60.10;;;;;;4975525;28;19914;-91
2023/01/30 21:18:38;;;;;;;;;;;10.90;60.20;;;;;;4972844;28;19936;-94
2023/01/30 21:21:04;;;;;;;;;;;10.80;59.90;;;;;;4960827;28;19933;-92
2023/01/30 21:23:30;;;;;;;;;;;10.70;59.60;;;;;;4965529;28;19918;-91
2023/01/30 21:26:06;;;;;;;;;;;10.70;59.80;;;;;;4974258;28;20270;-91
2023/01/30 21:28:44;;;;;;;;;;;10.60;59.90;;;;;;4970182;28;19940;-91
2023/01/30 21:31:11;;;;;;;;;;;10.50;59.80;;;;;;4972323;28;19922;-94
2023/01/30 21:34:03;;;;;;;;;;;10.40;59.40;;;;;;4970755;28;20005;-91
2023/01/30 21:45:07;;;;;;;;;;;9.90;58.60;;;;;;4966709;28;19922;-91
2023/01/30 21:47:52;;;;;;;;;;;9.80;58.30;;;;;;4966011;28;19918;-90
2023/01/30 21:50:21;;;;;;;;;;;9.70;58.00;;;;;;4970887;28;19921;-90
2023/01/30 21:52:57;;;;;;;;;;;9.60;58.30;;;;;;4969687;28;19934;-91
2023/01/30 21:55:25;;;;;;;;;;;9.50;58.50;;;;;;4969575;28;19914;-94
2023/01/30 21:58:03;;;;;;;;;;;;;;;;;;;;;
2023/01/30 22:00:37;;;;;;;;;;;9.40;59.00;;;;;;4970357;28;19926;-92
2023/01/30 22:03:26;;;;;;;;;;;9.40;59.80;;;;;;4965670;28;19922;-92
2023/01/30 22:05:53;;;;;;;;;;;9.50;60.40;;;;;;4969269;28;19922;-92
2023/01/30 22:11:12;;;;;;;;;;;9.80;61.00;;;;;;4971174;28;19941;-90
2023/01/30 22:13:43;;;;;;;;;;;9.80;61.00;;;;;;4960869;28;19918;-91
2023/01/30 22:16:13;;;;;;;;;;;9.80;60.80;;;;;;4965962;28;19969;-92
2023/01/30 22:18:58;;;;;;;;;;;9.80;60.80;;;;;;4966652;28;20337;-93
2023/01/30 22:21:34;;;;;;;;;;;9.80;60.80;;;;;;4967020;28;20047;-89
2023/01/30 22:24:04;;;;;;;;;;;9.80;60.90;;;;;;4964749;28;19949;-93
2023/01/30 22:26:41;;;;;;;;;;;9.80;61.00;;;;;;4953669;28;19918;-90
2023/01/30 22:29:14;;;;;;;;;;;9.80;61.10;;;;;;4961279;28;19958;-93
2023/01/30 22:31:40;;;;;;;;;;;9.90;61.30;;;;;;4970974;28;19914;-94
2023/01/30 22:34:14;;;;;;;;;;;10.00;61.40;;;;;;4959097;28;19933;-95
2023/01/30 22:36:52;;;;;;;;;;;10.00;61.60;;;;;;4977752;28;20280;-91
2023/01/30 22:39:20;;;;;;;;;;;10.10;61.50;;;;;;4967702;28;19934;-95
2023/01/30 22:44:21;;;;;;;;;;;10.20;61.40;;;;;;4960564;23;19957;-91
2023/01/30 22:46:50;;;;;;;;;;;10.20;61.40;;;;;;4932495;29;20199;-91
2023/01/30 22:49:23;;;;;;;;;;;10.30;61.50;;;;;;4947142;28;20398;-90
2023/01/30 22:52:02;;;;;;;;;;;;;;;;;;;;;
2023/01/30 22:54:30;;;;;;;;;;;10.40;61.40;;;;;;4931307;29;20301;-92
2023/01/30 22:56:56;;;;;;;;;;;10.50;61.50;;;;;;4947272;28;19911;-93
2023/01/30 22:59:25;;;;;;;;;;;10.60;61.50;;;;;;4935143;29;19927;-91